Parsons Landing, Santa Catalina Island Weather observations

Data are for 10 minute period ending at time listed.
 Day   Time   Solar   Ave.   Ave.  Ave.  Vector    Max.   Stn.   Total 
  of    of     Rad.   Air    Rel.  Wind   Wind     Wind   Baro. Precip. 
Year   Day            Temp.  Hum.  Speed  Dir.     Gust   Pres.         
2015   (PST)   W/m2    F      %     mph   deg.      mph    mb.    in.   
------------------------------------------------------------------------
  90    5:50    3.0    53   96.8     4    161.1     6.0    999.0   0.00  
  90    6:00    9.0    53   96.9     4    157.0     6.6    999.0   0.00  
  90    6:10   13.0    54   96.7     4    164.1     6.0    999.0   0.00  
  90    6:20   22.0    55   96.5     4    164.2     6.0    999.0   0.00  
  90    6:30   31.0    56   95.9     4    164.2     5.4    999.0   0.00  
  90    6:40   40.0    56   95.0     4    161.2     6.6    999.0   0.00  
  90    6:50   62.0    56   94.1     5    156.7     6.6    999.0   0.00  
  90    7:00   87.0    57   93.2     4    141.3     6.0    999.0   0.00  
  90    7:10  103.0    58   92.1     1    120.5     3.6    999.0   0.00  
  90    7:20   98.0    58   90.7     2    128.3     4.2    999.0   0.00  
  90    7:30   61.0    58   90.5     4     90.6     6.6    999.0   0.00  
  90    7:40  143.0    58   90.0     3     88.5     4.2    999.0   0.00  
  90    7:50  194.0    59   88.1     4    101.3     7.2    999.0   0.00  
  90    8:00  212.0    60   87.3     4    104.0     6.6    999.0   0.00  
  90    8:10  224.0    60   86.7     4     71.6     6.0    999.0   0.00  
  90    8:20  307.0    61   85.4     6     60.8     9.0    999.0   0.00  
  90    8:30  338.0    61   83.8     6     76.5    10.2    999.0   0.00  
  90    8:40  283.0    61   83.4     6     73.6     9.6    999.0   0.00  
  90    8:50  473.0    63   79.9     6     64.1     9.0    999.0   0.00  
  90    9:00  451.0    63   79.1     5     64.3     9.0    999.0   0.00  
  90    9:10  553.0    64   76.1     4     54.7     7.8    999.0   0.00  
  90    9:20  540.0    66   73.5     3     13.8     6.0    999.0   0.00  
  90    9:30  687.0    67   70.0     3     46.9     6.6    999.0   0.00  
  90    9:40  608.0    66   71.8     5     72.2     7.8    999.0   0.00  
  90    9:50  496.0    64   75.7     6     61.3     9.6    999.0   0.00  
  90   10:00  653.0    64   75.7     5     73.7     9.6    999.0   0.00  
  90   10:10  632.0    64   75.2     5     69.9     9.0    999.0   0.00  
  90   10:20  684.0    66   73.1     4     53.0     7.2    999.0   0.00  
  90   10:30  736.0    66   72.4     5    357.3     8.4    999.0   0.00  
  90   10:40  365.0    66   71.9     4    348.9     8.4    999.0   0.00  
  90   10:50  682.0    65   74.2     4    346.6     7.8    999.0   0.00  
  90   11:00  631.0    66   72.4     4    340.1     7.8    999.0   0.00  
  90   11:10  568.0    64   76.0     5    342.0     9.0    999.0   0.00  
  90   11:20  595.0    64   75.7     5    338.9     9.0    999.0   0.00  
  90   11:30  553.0    64   75.6     5    331.9     8.4    999.0   0.00  
  90   11:40  584.0    64   76.9     6    333.0     9.0    999.0   0.00  
  90   11:50  487.0    64   76.0     6    338.7     9.6    999.0   0.00  
  90   12:00  534.0    66   74.3     4     23.7     7.8    999.0   0.00  
  90   12:10  713.0    68   68.7     3      0.6     6.6    999.0   0.00  
  90   12:20  682.0    68   68.8     5    339.8     9.6    999.0   0.00  
  90   12:30  700.0    67   69.9     9    325.5    13.7    999.0   0.00  
  90   12:40  743.0    66   71.4     9    313.8    13.7    999.0   0.00  
  90   12:50  736.0    66   71.8     9    322.7    13.1    999.0   0.00  
  90   13:00  720.0    67   69.7     8    316.7    11.9    999.0   0.00  
  90   13:10  701.0    66   72.0     8    326.7    11.9    999.0   0.00  
  90   13:20  690.0    65   73.0     9    325.2    13.1    999.0   0.00  
  90   13:30  683.0    66   71.8     9    322.6    13.7    999.0   0.00  
  90   13:40  669.0    66   71.6     9    321.6    11.9    999.0   0.00  
  90   13:50  661.0    66   70.0     8    311.4    11.3    999.0   0.00  
  90   14:00  644.0    66   70.4     8    314.8    10.8    999.0   0.00  
  90   14:10  628.0    65   73.4     8    324.3    11.3    999.0   0.00  
  90   14:20  605.0    65   73.0     8    323.8    11.9    999.0   0.00  
  90   14:30  582.0    65   73.2     8    324.0    11.3    999.0   0.00  
  90   14:40  558.0    65   73.0     9    315.3    13.1    999.0   0.00  
  90   14:50  536.0    65   73.0     9    306.6    14.3    999.0   0.00  
  90   15:00  513.0    64   74.6     8    306.1    15.5    999.0   0.00  
  90   15:10  490.0    64   74.2     8    306.1    13.7    999.0   0.00  
  90   15:20  464.0    65   73.9     9    309.1    13.7    999.0   0.00  
  90   15:30  440.0    64   74.3     9    310.9    12.5    999.0   0.00  
  90   15:40  420.0    65   73.1     7    306.5    10.8    999.0   0.00  
  90   15:50  400.0    65   72.2     6    301.2    10.2    999.0   0.00  
  90   16:00  341.0    65   71.6     6    302.6     9.6    999.0   0.00  
  90   16:10  296.0    64   73.7     6    299.8    11.3    999.0   0.00  
  90   16:20  225.0    63   75.6     6    295.6    10.8    999.0   0.00  
  90   16:30  277.0    65   72.2     6    313.2    10.2    999.0   0.00  
  90   16:40  255.0    65   72.4     7    320.0    10.2    999.0   0.00  
  90   16:50  221.0    65   69.0     6    311.3    10.2    999.0   0.00  
  90   17:00  185.0    66   64.8     4    316.2     7.8    999.0   0.00  
  90   17:10  154.0    66   61.1     2    331.5     4.8    999.0   0.00  
  90   17:20  125.0    66   62.9     3     55.3     4.2    999.0   0.00  
  90   17:30   98.0    66   62.2     2    333.4     4.8    999.0   0.00  
  90   17:40   70.0    65   66.5     3     92.2     4.8    999.0   0.00  
  90   17:50   23.0    62   73.1     4    179.5    12.5    999.0   0.00  
  90   18:00   16.0    61   75.2    10    205.4    18.5    999.0   0.00  
  90   18:10    9.0    61   77.8    13    216.4    19.7    999.0   0.00  
  90   18:20    5.0    61   78.2     9    227.5    14.9    999.0   0.00  
  90   18:30    0.0    61   77.1     6    217.3    13.1    999.0   0.00  
  90   18:40    0.0    61   76.1     2    192.7     5.4    999.0   0.00  
  90   18:50    0.0    60   77.3     3    158.6     8.4    999.0   0.00  
  90   19:00    0.0    61   78.7     6    208.3    11.9    999.0   0.00  
  90   19:10    0.0    60   78.5     4    120.1     8.4    999.0   0.00  
  90   19:20    0.0    60   77.8     4    111.4     8.4    999.0   0.00  
  90   19:30    0.0    59   79.3     3    119.4     5.4    999.0   0.00  
  90   19:40    0.0    59   81.2     4     80.8     7.2    999.0   0.00  
  90   19:50    0.0    60   79.6     2    209.4     6.0    999.0   0.00  
  90   20:00    0.0    59   79.8     2    277.6     4.2    999.0   0.00  
  90   20:10    0.0    59   79.8     2    230.6     3.0    999.0   0.00  
  90   20:20    0.0    59   80.0     2    226.8     3.0    999.0   0.00  
  90   20:30    0.0    59   80.9     1    185.6     1.8    999.0   0.00  
  90   20:40    0.0    57   84.1     3    138.3     4.8    999.0   0.00  
  90   20:50    0.0    58   89.8     5    126.3     7.8    999.0   0.00  
  90   21:00    0.0    58   90.5     5    132.1     7.8    999.0   0.00  
  90   21:10    0.0    58   89.1     5    131.8     7.8    999.0   0.00  
  90   21:20    0.0    58   89.0     6    130.8     9.6    999.0   0.00  
  90   21:30    0.0    58   89.4     6    136.9     9.6    999.0   0.00  
  90   21:40    0.0    58   90.3     6    144.2     9.0    999.0   0.00  
  90   21:50    0.0    58   89.4     6    148.7     9.0    999.0   0.00  
  90   22:00    0.0    59   88.2     6    107.5    11.9    999.0   0.00  
  90   22:10    0.0    58   90.1     7    140.9    10.8    999.0   0.00  
  90   22:20    0.0    59   87.9     7    136.6    10.2    999.0   0.00  
  90   22:30    0.0    58   85.8     3    119.7     5.4    999.0   0.00  
  90   22:40    0.0    57   80.4     2    166.1     3.6    999.0   0.00  
  90   22:50    0.0    56   80.2     4    157.6     4.8    999.0   0.00  
  90   23:00    0.0    58   82.6     4    134.0     6.6    999.0   0.00  
  90   23:10    0.0    58   84.4     3    137.2     4.8    999.0   0.00  
  90   23:20    0.0    58   81.1     3    261.4     4.8    999.0   0.00  
  90   23:30    0.0    58   87.3     4    297.9     6.0    999.0   0.00  
  90   23:40    0.0    58   88.0     4    292.9     6.0    999.0   0.00  
  90   23:50    0.0    58   88.6     3    265.4     5.4    999.0   0.00  
  91    0:00    0.0    58   89.4     2    245.0     4.2    999.0   0.00  
  91    0:10    0.0    57   91.0     1    167.9     2.4    999.0   0.00  
  91    0:20    0.0    58   93.0     2    208.7     3.6    999.0   0.00  
  91    0:30    0.0    56   93.2     2    181.6     3.0    999.0   0.00  
  91    0:40    0.0    56   94.2     3    154.7     3.6    999.0   0.00  
  91    0:50    0.0    56   95.2     4    160.8     4.8    999.0   0.00  
  91    1:00    0.0    56   95.4     4    164.9     5.4    999.0   0.00  
  91    1:10    0.0    56   95.4     3    157.8     3.6    999.0   0.00  
  91    1:20    0.0    55   95.2     3    158.5     4.2    999.0   0.00  
  91    1:30    0.0    56   95.9     3    166.1     4.2    999.0   0.00  
  91    1:40    0.0    56   96.0     3    165.7     3.6    999.0   0.00  
  91    1:50    0.0    55   95.9     4    159.1     4.8    999.0   0.00  
  91    2:00    0.0    55   96.4     3    153.0     4.2    999.0   0.00  
  91    2:10    0.0    55   96.3     4    160.4     4.8    999.0   0.00  
  91    2:20    0.0    54   96.0     3    155.6     4.2    999.0   0.00  
  91    2:30    0.0    54   95.5     4    152.8     6.0    999.0   0.00  
  91    2:40    0.0    55   95.5     4    155.5     6.0    999.0   0.00  
  91    2:50    0.0    56   95.6     4    153.1     5.4    999.0   0.00  
  91    3:00    0.0    56   95.3     4    147.9     5.4    999.0   0.00  
  91    3:10    0.0    56   95.0     4    137.7     7.2    999.0   0.00  
  91    3:20    0.0    57   94.7     5    135.7     7.2    999.0   0.00  
  91    3:30    0.0    57   95.0     4    143.8     6.6    999.0   0.00  
  91    3:40    0.0    57   95.5     4    144.2     6.0    999.0   0.00  
  91    3:50    0.0    56   94.9     4    147.5     6.0    999.0   0.00  
  91    4:00    0.0    56   94.9     5    148.0     6.6    999.0   0.00  
  91    4:10    0.0    57   93.7     5    156.9     7.8    999.0   0.00  
  91    4:20    0.0    56   89.8     4    163.5     5.4    999.0   0.00  
  91    4:30    0.0    56   87.7     5    168.9     6.6    999.0   0.00  
  91    4:40    0.0    57   84.7     4    160.2     6.6    999.0   0.00  
  91    4:50    0.0    58   82.1     4    162.2     6.6    999.0   0.00  
  91    5:00    0.0    57   81.5     4    159.9     6.0    999.0   0.00  
  91    5:10    0.0    57   82.8     4    163.8     6.6    999.0   0.00  
  91    5:20    0.0    57   80.5     4    172.9     6.6    999.0   0.00  
  91    5:30    0.0    58   79.6     5    170.3     6.6    999.0   0.00  
  91    5:40    1.0    58   80.7     3    137.7     6.0    999.0   0.00  

Return to Parsons Landing graphs page.


Western Regional Climate Center,wrcc@dri.edu